createdAt,value
2023-10-24T00:00:01.396Z,9.00
2023-10-24T00:02:28.896Z,10.50
2023-10-24T00:04:56.235Z,11.00
2023-10-24T00:07:24.994Z,12.33
2023-10-24T00:09:52.892Z,10.67
2023-10-24T00:12:20.146Z,15.67
2023-10-24T00:14:58.420Z,8.33
2023-10-24T00:17:26.637Z,9.00
2023-10-24T00:19:54.680Z,11.33
2023-10-24T00:22:21.856Z,9.67
2023-10-24T00:24:54.721Z,6.75
2023-10-24T00:27:22.036Z,11.00
2023-10-24T00:29:51.353Z,11.00
2023-10-24T00:32:19.771Z,3.33
2023-10-24T00:34:47.778Z,12.00
2023-10-24T00:37:14.792Z,6.33
2023-10-24T00:39:43.115Z,9.33
2023-10-24T00:42:11.715Z,7.00
2023-10-24T00:44:38.870Z,7.00
2023-10-24T00:47:07.349Z,6.33
2023-10-24T00:49:35.096Z,8.33
2023-10-24T00:52:03.380Z,7.00
2023-10-24T00:54:35.485Z,8.50
2023-10-24T00:57:04.638Z,7.67
2023-10-24T00:59:33.460Z,7.67
2023-10-24T01:02:01.383Z,7.00
2023-10-24T01:04:29.378Z,12.00
2023-10-24T01:06:56.473Z,7.67
2023-10-24T01:09:23.638Z,2.50
2023-10-24T01:11:51.775Z,5.50
2023-10-24T01:14:19.763Z,10.67
2023-10-24T01:16:48.382Z,7.50
2023-10-24T01:19:15.909Z,9.00
2023-10-24T01:21:48.736Z,8.00
2023-10-24T01:24:17.865Z,1.50
2023-10-24T01:26:46.230Z,7.00
2023-10-24T01:29:13.423Z,8.25
2023-10-24T01:31:41.052Z,6.75
2023-10-24T01:34:09.528Z,6.50
2023-10-24T01:36:39.635Z,9.25
2023-10-24T01:39:08.672Z,7.00
2023-10-24T01:41:35.805Z,9.75
2023-10-24T01:44:02.887Z,7.50
2023-10-24T01:46:32.703Z,10.25
2023-10-24T01:49:01.217Z,11.50
2023-10-24T01:51:28.128Z,7.00
2023-10-24T01:53:55.069Z,7.50
2023-10-24T01:56:24.768Z,9.75
2023-10-24T01:58:53.457Z,9.50
2023-10-24T02:01:20.689Z,12.25
2023-10-24T02:03:48.028Z,7.00
2023-10-24T02:06:16.033Z,9.75
2023-10-24T02:08:43.276Z,9.00
2023-10-24T02:11:11.273Z,7.50
2023-10-24T02:13:40.254Z,9.25
2023-10-24T02:16:10.597Z,6.50
2023-10-24T02:18:37.642Z,8.00
2023-10-24T02:21:07.242Z,10.00
2023-10-24T02:23:35.746Z,10.50
2023-10-24T02:26:03.412Z,16.67
2023-10-24T02:28:32.613Z,12.00
2023-10-24T02:31:04.380Z,11.00
2023-10-24T02:33:32.700Z,9.67
2023-10-24T02:36:07.943Z,9.67
2023-10-24T02:38:35.034Z,9.00
2023-10-24T02:41:04.292Z,6.50
2023-10-24T02:43:32.290Z,7.50
2023-10-24T02:46:05.359Z,10.67
2023-10-24T02:48:33.610Z,10.50
2023-10-24T02:51:01.713Z,9.33
2023-10-24T02:53:29.001Z,10.00
2023-10-24T02:56:02.629Z,11.00
2023-10-24T02:58:30.019Z,9.67
2023-10-24T03:01:05.262Z,9.75
2023-10-24T03:03:35.214Z,11.00
2023-10-24T03:06:23.200Z,6.00
2023-10-24T03:08:50.936Z,9.75
2023-10-24T03:11:23.041Z,12.00
2023-10-24T03:13:55.302Z,6.25
2023-10-24T03:16:24.774Z,7.00
2023-10-24T03:18:52.408Z,9.50
2023-10-24T03:21:20.150Z,9.75
2023-10-24T03:23:47.127Z,9.75
2023-10-24T03:26:14.064Z,6.50
2023-10-24T03:28:41.554Z,10.67
2023-10-24T03:31:10.479Z,10.67
2023-10-24T03:33:47.390Z,13.00
2023-10-24T03:36:15.595Z,6.00
2023-10-24T03:38:43.189Z,9.50
2023-10-24T03:41:10.463Z,7.00
2023-10-24T03:43:38.335Z,8.00
2023-10-24T03:46:08.686Z,9.00
2023-10-24T03:48:35.702Z,13.50
2023-10-24T03:51:04.328Z,8.00
2023-10-24T03:53:31.714Z,6.75
2023-10-24T03:56:01.324Z,7.50
2023-10-24T03:58:29.388Z,7.25
2023-10-24T04:01:03.197Z,10.25
2023-10-24T04:03:30.712Z,12.75
2023-10-24T04:05:57.693Z,9.50
2023-10-24T04:08:26.032Z,5.25
2023-10-24T04:10:53.471Z,9.50
2023-10-24T04:13:21.223Z,12.00
2023-10-24T04:15:57.344Z,10.50
2023-10-24T04:18:26.182Z,13.50
2023-10-24T04:20:53.214Z,14.67
2023-10-24T04:23:20.656Z,15.00
2023-10-24T04:25:49.122Z,6.25
2023-10-24T04:28:17.568Z,13.00
2023-10-24T04:30:46.056Z,15.33
2023-10-24T04:33:13.797Z,13.50
2023-10-24T04:35:47.016Z,16.67
2023-10-24T04:38:14.557Z,12.33
2023-10-24T04:40:43.848Z,17.33
2023-10-24T04:43:14.156Z,19.00
2023-10-24T04:45:42.172Z,18.00
2023-10-24T04:48:10.266Z,15.50
2023-10-24T04:50:38.851Z,14.00
2023-10-24T04:53:06.415Z,13.75
2023-10-24T04:55:34.061Z,14.25
2023-10-24T04:58:01.385Z,10.00
2023-10-24T05:00:32.735Z,15.00
2023-10-24T05:03:00.528Z,12.67
2023-10-24T05:05:30.020Z,18.25
2023-10-24T05:07:57.051Z,15.00
2023-10-24T05:10:24.086Z,18.00
2023-10-24T05:12:51.434Z,12.67
2023-10-24T05:15:20.644Z,15.33
2023-10-24T05:17:50.555Z,25.00
2023-10-24T05:20:18.976Z,24.00
2023-10-24T05:22:46.156Z,25.00
2023-10-24T05:25:13.276Z,20.00
2023-10-24T05:27:40.189Z,25.33
2023-10-24T05:30:09.607Z,22.67
2023-10-24T05:32:38.832Z,22.00
2023-10-24T05:35:08.123Z,19.00
2023-10-24T05:37:37.733Z,13.00
2023-10-24T05:40:06.500Z,14.33
2023-10-24T05:42:33.963Z,14.67
2023-10-24T05:45:01.142Z,12.67
2023-10-24T05:47:28.726Z,17.67
2023-10-24T05:49:55.813Z,19.67
2023-10-24T05:52:25.128Z,10.67
2023-10-24T05:54:52.539Z,13.00
2023-10-24T05:57:20.087Z,18.67
2023-10-24T05:59:49.777Z,13.00
2023-10-24T06:02:16.900Z,23.00
2023-10-24T06:04:44.357Z,19.00
2023-10-24T06:07:12.199Z,16.25
2023-10-24T06:09:41.821Z,18.00
2023-10-24T06:12:10.617Z,18.50
2023-10-24T06:14:37.718Z,16.75
2023-10-24T06:17:05.253Z,15.75
2023-10-24T06:19:32.319Z,12.25
2023-10-24T06:22:00.590Z,15.25
2023-10-24T06:24:32.645Z,17.25
2023-10-24T06:27:13.007Z,19.75
2023-10-24T06:29:40.424Z,18.25
2023-10-24T06:32:08.841Z,18.75
2023-10-24T06:34:41.762Z,15.25
2023-10-24T06:37:10.531Z,22.00
2023-10-24T06:39:37.924Z,20.50
2023-10-24T06:42:06.721Z,19.75
2023-10-24T06:44:33.826Z,21.00
2023-10-24T06:47:02.040Z,18.50
2023-10-24T06:49:32.920Z,19.50
2023-10-24T06:52:00.223Z,12.00
2023-10-24T06:54:37.945Z,15.25
2023-10-24T06:57:35.028Z,18.33
2023-10-24T07:00:12.617Z,15.00
2023-10-24T07:05:23.192Z,13.00
2023-10-24T07:07:51.167Z,17.00
2023-10-24T07:10:20.848Z,15.00
2023-10-24T07:15:32.314Z,13.50
2023-10-24T07:17:59.809Z,13.50
2023-10-24T07:20:34.865Z,14.25
2023-10-24T07:23:03.354Z,13.50
2023-10-24T07:25:30.732Z,15.50
2023-10-24T07:28:03.645Z,19.00
2023-10-24T07:30:31.156Z,14.00
2023-10-24T07:32:59.319Z,14.00
2023-10-24T07:35:26.663Z,14.33
2023-10-24T07:37:55.067Z,19.00
2023-10-24T07:40:22.030Z,17.33
2023-10-24T07:42:49.155Z,17.33
2023-10-24T07:45:20.805Z,13.00
2023-10-24T07:47:48.163Z,17.33
2023-10-24T07:50:15.294Z,13.67
2023-10-24T07:52:42.465Z,15.00
2023-10-24T07:55:10.085Z,15.00
2023-10-24T07:57:37.664Z,17.25
2023-10-24T08:00:06.737Z,16.67
2023-10-24T08:02:41.812Z,18.33
2023-10-24T08:05:09.704Z,14.25
2023-10-24T08:07:36.630Z,15.00
2023-10-24T08:10:04.076Z,19.50
2023-10-24T08:12:31.200Z,13.00
2023-10-24T08:15:00.762Z,15.50
2023-10-24T08:17:27.778Z,21.50
2023-10-24T08:19:56.428Z,17.50
2023-10-24T08:22:23.856Z,17.75
2023-10-24T08:24:51.451Z,10.75
2023-10-24T08:27:18.656Z,21.50
2023-10-24T08:29:45.546Z,22.50
2023-10-24T08:32:15.561Z,17.50
2023-10-24T08:34:43.467Z,24.50
2023-10-24T08:37:12.946Z,22.50
2023-10-24T08:39:40.379Z,17.75
2023-10-24T08:42:11.271Z,19.50
2023-10-24T08:44:41.325Z,15.50
2023-10-24T08:47:11.533Z,15.00
2023-10-24T08:49:40.050Z,16.00
2023-10-24T08:52:22.579Z,15.50
2023-10-24T08:54:55.545Z,19.50
2023-10-24T08:57:28.986Z,13.00
2023-10-24T08:59:58.531Z,17.50
2023-10-24T09:02:26.266Z,9.50
2023-10-24T09:04:53.360Z,13.00
2023-10-24T09:07:20.469Z,19.00
2023-10-24T09:09:50.174Z,8.50
2023-10-24T09:12:18.846Z,15.75
2023-10-24T09:14:54.109Z,20.50
2023-10-24T09:17:27.173Z,18.67
2023-10-24T09:19:56.973Z,16.33
2023-10-24T09:22:28.875Z,18.00
2023-10-24T09:24:57.955Z,18.67
2023-10-24T09:27:29.619Z,29.33
2023-10-24T09:29:57.556Z,26.00
2023-10-24T09:32:26.581Z,21.75
2023-10-24T09:34:54.400Z,21.25
2023-10-24T09:37:21.461Z,18.50
2023-10-24T09:39:57.061Z,17.75
2023-10-24T09:42:31.660Z,21.75
2023-10-24T09:45:03.411Z,15.50
2023-10-24T09:47:34.215Z,17.50
2023-10-24T09:50:04.222Z,18.50
2023-10-24T09:52:32.817Z,23.50
2023-10-24T09:55:01.650Z,22.00
2023-10-24T09:57:32.742Z,15.00
2023-10-24T10:00:01.128Z,16.75
2023-10-24T10:02:29.227Z,17.50
2023-10-24T10:04:56.924Z,22.00
2023-10-24T10:07:27.062Z,15.00
2023-10-24T10:09:55.621Z,20.33
2023-10-24T10:12:23.953Z,17.67
2023-10-24T10:15:27.559Z,15.33
2023-10-24T10:18:15.767Z,20.33
2023-10-24T10:21:06.869Z,18.33
2023-10-24T10:24:12.703Z,18.67
2023-10-24T10:27:02.569Z,18.67
2023-10-24T10:29:48.756Z,19.00
2023-10-24T10:32:38.162Z,16.00
2023-10-24T10:35:22.570Z,17.33
2023-10-24T10:38:01.569Z,19.00
2023-10-24T10:40:29.811Z,15.33
2023-10-24T10:42:57.130Z,16.33
2023-10-24T10:45:29.951Z,18.00
2023-10-24T10:48:01.659Z,15.33
2023-10-24T10:50:30.286Z,16.00
2023-10-24T10:53:21.204Z,18.33
2023-10-24T10:56:18.274Z,21.00
2023-10-24T10:59:18.028Z,15.33
2023-10-24T11:02:03.367Z,21.33
2023-10-24T11:04:33.226Z,16.00
2023-10-24T11:07:01.793Z,13.67
2023-10-24T11:09:35.667Z,18.33
2023-10-24T11:12:27.847Z,22.33
2023-10-24T11:15:25.362Z,15.33
2023-10-24T11:17:54.716Z,18.00
2023-10-24T11:20:25.803Z,16.00
2023-10-24T11:22:53.002Z,13.00
2023-10-24T11:25:22.792Z,10.67
2023-10-24T11:27:50.262Z,13.00
2023-10-24T11:30:17.702Z,13.00
2023-10-24T11:32:46.927Z,18.00
2023-10-24T11:35:13.918Z,16.00
2023-10-24T11:37:42.695Z,10.00
2023-10-24T11:40:10.952Z,12.00
2023-10-24T11:42:37.957Z,13.50
2023-10-24T11:45:06.427Z,12.50
2023-10-24T11:47:34.173Z,18.25
2023-10-24T11:50:02.490Z,14.50
2023-10-24T11:52:32.496Z,12.00
2023-10-24T11:55:02.805Z,12.33
2023-10-24T11:57:32.288Z,14.00
2023-10-24T11:59:59.886Z,15.75
2023-10-24T12:02:27.133Z,11.50
2023-10-24T12:04:58.097Z,14.50
2023-10-24T12:07:27.458Z,12.00
2023-10-24T12:10:10.677Z,18.00
2023-10-24T12:12:38.028Z,18.50
2023-10-24T12:15:07.509Z,10.50
2023-10-24T12:17:36.242Z,12.25
2023-10-24T12:20:10.528Z,14.00
2023-10-24T12:22:37.985Z,14.50
2023-10-24T12:25:08.879Z,14.67
2023-10-24T12:27:37.128Z,15.00
2023-10-24T12:30:05.774Z,9.50
2023-10-24T12:32:32.836Z,15.25
2023-10-24T12:35:00.536Z,15.50
2023-10-24T12:37:27.518Z,13.50
2023-10-24T12:39:55.328Z,14.25
2023-10-24T12:42:23.605Z,0.00
2023-10-24T12:44:52.187Z,14.50
2023-10-24T12:47:19.655Z,15.50
2023-10-24T12:49:47.220Z,11.25
2023-10-24T12:52:16.377Z,14.50
2023-10-24T12:54:44.260Z,13.50
2023-10-24T12:57:11.536Z,14.00
2023-10-24T12:59:38.794Z,15.25
2023-10-24T13:02:07.465Z,14.33
2023-10-24T13:04:35.153Z,15.67
2023-10-24T13:07:03.995Z,17.33
2023-10-24T13:09:31.698Z,18.67
2023-10-24T13:12:00.756Z,15.00
2023-10-24T13:14:27.715Z,13.00
2023-10-24T13:17:12.903Z,22.33
2023-10-24T13:19:47.760Z,17.33
2023-10-24T13:22:14.990Z,12.00
2023-10-24T13:24:42.017Z,7.67
2023-10-24T13:27:10.146Z,18.00
2023-10-24T13:29:37.521Z,9.33
2023-10-24T13:32:06.520Z,24.67
2023-10-24T13:37:05.466Z,12.00
2023-10-24T13:39:32.542Z,12.00
2023-10-24T13:42:00.014Z,15.67
2023-10-24T13:44:27.359Z,13.67
2023-10-24T13:46:56.112Z,13.00
2023-10-24T13:49:23.396Z,14.25
2023-10-24T13:51:53.217Z,12.67
2023-10-24T13:54:21.733Z,9.00
2023-10-24T13:56:50.104Z,15.75
2023-10-24T13:59:20.938Z,11.50
2023-10-24T14:01:50.732Z,18.50
2023-10-24T14:04:20.996Z,16.50
2023-10-24T14:06:49.674Z,13.50
2023-10-24T14:09:18.185Z,15.00
2023-10-24T14:11:47.332Z,14.00
2023-10-24T14:14:16.339Z,10.00
2023-10-24T14:16:44.303Z,15.75
2023-10-24T14:19:11.583Z,11.00
2023-10-24T14:21:39.062Z,16.00
2023-10-24T14:24:08.141Z,17.50
2023-10-24T14:26:36.005Z,12.00
2023-10-24T14:29:06.892Z,14.50
2023-10-24T14:31:35.569Z,16.50
2023-10-24T14:34:03.378Z,19.25
2023-10-24T14:36:30.985Z,17.00
2023-10-24T14:38:58.100Z,12.00
2023-10-24T14:41:25.065Z,15.50
2023-10-24T14:43:52.377Z,15.75
2023-10-24T14:46:23.713Z,22.67
2023-10-24T14:48:52.405Z,22.00
2023-10-24T14:51:19.677Z,22.25
2023-10-24T14:53:46.582Z,13.00
2023-10-24T14:56:13.742Z,18.25
2023-10-24T14:58:41.155Z,16.67
2023-10-24T15:01:09.718Z,13.00
2023-10-24T15:03:38.576Z,9.75
2023-10-24T15:06:07.464Z,15.00
2023-10-24T15:08:34.735Z,15.75
2023-10-24T15:11:02.144Z,14.00
2023-10-24T15:13:29.049Z,13.00
2023-10-24T15:15:57.870Z,6.25
2023-10-24T15:18:24.864Z,15.75
2023-10-24T15:20:53.407Z,11.25
2023-10-24T15:23:21.919Z,13.50
2023-10-24T15:25:51.340Z,17.00
2023-10-24T15:28:19.371Z,17.75
2023-10-24T15:30:46.671Z,20.00
2023-10-24T15:33:13.631Z,16.00
2023-10-24T15:35:40.587Z,9.75
2023-10-24T15:38:11.724Z,18.25
2023-10-24T15:40:39.328Z,13.75
2023-10-24T15:43:07.704Z,13.00
2023-10-24T15:45:34.994Z,14.25
2023-10-24T15:48:03.655Z,18.25
2023-10-24T15:50:30.584Z,18.25
2023-10-24T15:52:57.954Z,17.00
2023-10-24T15:55:27.872Z,15.75
2023-10-24T15:57:57.869Z,21.00
2023-10-24T16:00:29.697Z,25.50
2023-10-24T16:02:57.230Z,17.25
2023-10-24T16:05:24.294Z,19.50
2023-10-24T16:07:51.448Z,18.50
2023-10-24T16:10:21.598Z,18.00
2023-10-24T16:12:50.123Z,14.00
2023-10-24T16:15:17.366Z,19.00
2023-10-24T16:17:44.236Z,17.50
2023-10-24T16:20:12.590Z,12.75
2023-10-24T16:22:39.748Z,16.50
2023-10-24T16:25:08.878Z,17.00
2023-10-24T16:27:36.659Z,14.75
2023-10-24T16:30:07.420Z,17.50
2023-10-24T16:32:34.870Z,20.00
2023-10-24T16:35:02.498Z,22.50
2023-10-24T16:37:29.466Z,22.75
2023-10-24T16:39:57.524Z,16.50
2023-10-24T16:42:24.822Z,18.75
2023-10-24T16:44:52.382Z,20.50
2023-10-24T16:47:20.938Z,15.50
2023-10-24T16:49:48.737Z,19.50
2023-10-24T16:52:16.169Z,13.00
2023-10-24T16:54:43.639Z,21.50
2023-10-24T16:57:11.635Z,23.25
2023-10-24T16:59:39.547Z,14.00
2023-10-24T17:02:07.309Z,21.50
2023-10-24T17:04:38.635Z,13.75
2023-10-24T17:07:05.940Z,19.50
2023-10-24T17:09:33.508Z,23.50
2023-10-24T17:12:00.816Z,20.00
2023-10-24T17:14:27.700Z,12.00
2023-10-24T17:16:56.545Z,14.75
2023-10-24T17:19:24.139Z,14.50
2023-10-24T17:21:52.818Z,13.00
2023-10-24T17:24:21.675Z,21.50
2023-10-24T17:26:49.001Z,18.50
2023-10-24T17:29:18.037Z,17.00
2023-10-24T17:31:45.124Z,16.50
2023-10-24T17:34:14.603Z,12.00
2023-10-24T17:36:41.880Z,21.75
2023-10-24T17:39:10.477Z,10.00
2023-10-24T17:41:37.412Z,11.50
2023-10-24T17:44:04.893Z,12.50
2023-10-24T17:46:31.859Z,12.25
2023-10-24T17:48:59.571Z,6.50
2023-10-24T17:51:26.479Z,6.25
2023-10-24T17:53:54.180Z,7.00
2023-10-24T17:56:24.067Z,7.00
2023-10-24T17:58:51.175Z,7.00
2023-10-24T18:01:18.321Z,7.00
2023-10-24T18:03:45.897Z,7.00
2023-10-24T18:06:16.189Z,9.00
2023-10-24T18:08:43.268Z,10.00
2023-10-24T18:11:18.175Z,6.00
2023-10-24T18:13:46.918Z,8.75
2023-10-24T18:16:15.669Z,8.50
2023-10-24T18:18:43.012Z,7.00
2023-10-24T18:21:13.715Z,5.50
2023-10-24T18:23:43.098Z,9.00
2023-10-24T18:26:10.609Z,5.75
2023-10-24T18:28:38.206Z,6.75
2023-10-24T18:31:06.972Z,6.25
2023-10-24T18:33:37.415Z,12.00
2023-10-24T18:36:07.684Z,10.00
2023-10-24T18:38:38.956Z,7.50
2023-10-24T18:41:06.128Z,10.00
2023-10-24T18:43:35.110Z,11.00
2023-10-24T18:46:06.899Z,6.75
2023-10-24T18:48:35.685Z,8.50
2023-10-24T18:51:13.218Z,6.25
2023-10-24T18:53:48.553Z,5.25
2023-10-24T18:56:20.562Z,6.25
2023-10-24T18:58:51.669Z,0.50
2023-10-24T19:04:10.012Z,6.75
2023-10-24T19:06:40.155Z,7.00
2023-10-24T19:09:07.630Z,6.75
2023-10-24T19:11:35.430Z,8.00
2023-10-24T19:14:03.571Z,6.00
2023-10-24T19:16:36.425Z,6.50
2023-10-24T19:19:04.213Z,11.25
2023-10-24T19:21:31.833Z,11.50
2023-10-24T19:24:01.231Z,10.50
2023-10-24T19:26:31.872Z,11.00
2023-10-24T19:28:59.839Z,13.75
2023-10-24T19:31:28.000Z,10.00
2023-10-24T19:33:58.262Z,12.50
2023-10-24T19:36:26.581Z,17.25
2023-10-24T19:38:54.315Z,17.75
2023-10-24T19:41:23.982Z,15.00
2023-10-24T19:43:51.967Z,24.50
2023-10-24T19:46:25.357Z,15.00
2023-10-24T19:48:53.697Z,13.00
2023-10-24T19:51:23.588Z,12.00
2023-10-24T19:53:51.494Z,12.75
2023-10-24T19:56:21.239Z,12.75
2023-10-24T19:58:51.911Z,12.75
2023-10-24T20:01:19.966Z,10.75
2023-10-24T20:03:48.691Z,12.75
2023-10-24T20:06:16.798Z,12.00
2023-10-24T20:08:46.532Z,10.25
2023-10-24T20:12:33.684Z,12.25
2023-10-24T20:14:02.741Z,9.50
2023-10-24T20:16:34.311Z,3.75
2023-10-24T20:19:02.349Z,9.00
2023-10-24T20:21:31.079Z,5.00
2023-10-24T20:24:00.401Z,4.50
2023-10-24T20:26:28.374Z,9.00
2023-10-24T20:28:55.458Z,3.75
2023-10-24T20:31:22.449Z,7.00
2023-10-24T20:33:49.948Z,9.50
2023-10-24T20:36:17.018Z,14.33
2023-10-24T20:38:44.150Z,9.00
2023-10-24T20:41:13.281Z,9.25
2023-10-24T20:43:40.327Z,6.75
2023-10-24T20:46:07.749Z,10.50
2023-10-24T20:48:36.283Z,9.33
2023-10-24T20:51:03.683Z,7.00
2023-10-24T20:53:31.313Z,5.00
2023-10-24T20:56:00.789Z,5.50
2023-10-24T20:58:29.716Z,5.00
2023-10-24T21:00:57.030Z,4.00
2023-10-24T21:03:24.276Z,9.00
2023-10-24T21:05:51.240Z,6.00
2023-10-24T21:08:21.224Z,6.00
2023-10-24T21:10:55.527Z,6.25
2023-10-24T21:13:24.158Z,5.25
2023-10-24T21:15:57.348Z,4.00
2023-10-24T21:18:24.931Z,9.50
2023-10-24T21:20:52.649Z,1.33
2023-10-24T21:23:19.828Z,3.75
2023-10-24T21:25:49.407Z,4.50
2023-10-24T21:28:18.011Z,10.00
2023-10-24T21:30:47.359Z,6.00
2023-10-24T21:33:16.245Z,12.00
2023-10-24T21:35:43.712Z,7.25
2023-10-24T21:38:11.004Z,6.50
2023-10-24T21:40:38.291Z,7.00
2023-10-24T21:43:07.792Z,9.75
2023-10-24T21:45:34.852Z,9.50
2023-10-24T21:48:01.812Z,8.00
2023-10-24T21:50:30.542Z,12.67
2023-10-24T21:52:57.667Z,3.00
2023-10-24T21:55:24.692Z,8.75
2023-10-24T21:57:51.709Z,5.00
2023-10-24T22:00:19.054Z,6.50
2023-10-24T22:02:46.469Z,9.50
2023-10-24T22:05:13.970Z,4.50
2023-10-24T22:07:42.685Z,6.00
2023-10-24T22:10:10.468Z,5.25
2023-10-24T22:12:38.416Z,3.50
2023-10-24T22:15:14.106Z,4.00
2023-10-24T22:17:42.356Z,4.50
2023-10-24T22:20:10.734Z,10.00
2023-10-24T22:22:38.008Z,6.50
2023-10-24T22:25:08.245Z,8.00
2023-10-24T22:27:35.579Z,6.25
2023-10-24T22:30:03.641Z,8.50
2023-10-24T22:32:32.182Z,6.00
2023-10-24T22:34:59.234Z,6.00
2023-10-24T22:37:27.129Z,9.00
2023-10-24T22:39:54.259Z,7.00
2023-10-24T22:42:23.873Z,7.00
2023-10-24T22:44:50.914Z,4.00
2023-10-24T22:47:17.923Z,6.00
2023-10-24T22:49:50.034Z,4.00
2023-10-24T22:52:17.018Z,7.67
2023-10-24T22:54:44.684Z,7.00
2023-10-24T22:57:11.870Z,5.33
2023-10-24T22:59:40.376Z,4.00
2023-10-24T23:02:07.759Z,8.33
2023-10-24T23:04:34.688Z,6.33
2023-10-24T23:07:03.939Z,3.00
2023-10-24T23:09:31.260Z,6.00
2023-10-24T23:11:58.236Z,5.67
2023-10-24T23:14:25.448Z,4.00
2023-10-24T23:16:56.378Z,4.00
2023-10-24T23:19:23.588Z,4.00
2023-10-24T23:21:58.484Z,9.00
2023-10-24T23:24:27.456Z,4.67
2023-10-24T23:26:56.036Z,4.67
2023-10-24T23:29:23.482Z,7.00
2023-10-24T23:31:52.448Z,6.00
2023-10-24T23:34:24.612Z,9.00
2023-10-24T23:36:51.665Z,7.00
2023-10-24T23:39:19.261Z,6.00
2023-10-24T23:41:47.799Z,6.33
2023-10-24T23:44:15.099Z,6.25
2023-10-24T23:46:42.388Z,6.33
2023-10-24T23:49:09.340Z,9.00
2023-10-24T23:51:38.274Z,8.50
2023-10-24T23:54:06.345Z,6.75
2023-10-24T23:56:33.411Z,8.75
2023-10-24T23:59:01.823Z,6.00
